Svitzer Lisboa — CSXW7 — position and weather

sailwx.info

Track history (hours):
 
Tides and Currents Weather Stations Pressure Air Temp Water Temp Dewpoint Dewpoint Depression Visibility Wind Speed Wind Dir Waves Ship Positions

Svitzer Lisboa

Last reported at 2017-Sep-24 20:53 UTC. Time now 2017-Sep-24 21:09 UTC.
Position N 38°30' W 008°50'.

Length 28 m; draft 4 m.

Type: Towing. MMSI: 263623000.

Date/timePositionNaut miles runAvg speedWind from/ knotsBaromVisibWave heightAir tempDewpointWater temp
2017-Sep-24 20:53N 38°30' W 008°50'0 0.0
2017-Sep-24 20:26N 38°30' W 008°50'0 0.0
2017-Sep-24 19:59N 38°30' W 008°50'0 0.0
2017-Sep-24 19:30N 38°30' W 008°50'0 0.0
2017-Sep-24 19:00N 38°30' W 008°50'0 0.0
2017-Sep-24 18:30N 38°30' W 008°50'0 0.0
2017-Sep-24 18:00N 38°30' W 008°50'0 0.0
2017-Sep-24 17:30N 38°30' W 008°50'0 0.0
2017-Sep-24 17:00N 38°30' W 008°50'0 0.0
2017-Sep-24 16:30N 38°30' W 008°50'0 0.0
2017-Sep-24 16:00N 38°30' W 008°50'0 0.0
2017-Sep-24 15:30N 38°30' W 008°50'0 0.0
2017-Sep-24 15:00N 38°30' W 008°50'0 0.0
2017-Sep-24 14:29N 38°30' W 008°50'0 0.0
2017-Sep-24 14:00N 38°30' W 008°50'0 0.0
2017-Sep-24 13:30N 38°30' W 008°50'0 0.0
2017-Sep-24 13:00N 38°30' W 008°50'0 0.0
2017-Sep-24 12:30N 38°30' W 008°50'0 0.0
2017-Sep-24 12:00N 38°30' W 008°50'0 0.0
2017-Sep-24 11:29N 38°30' W 008°50'0 0.0
2017-Sep-24 11:00N 38°30' W 008°50'0 0.0
2017-Sep-24 10:29N 38°30' W 008°50'0 0.0
2017-Sep-24 10:00N 38°30' W 008°50'0 0.0
2017-Sep-24 09:29N 38°30' W 008°50'0 0.0
2017-Sep-24 09:00N 38°30' W 008°50'0 0.0
2017-Sep-24 08:28N 38°30' W 008°50'0 0.0
2017-Sep-24 08:00N 38°30' W 008°50'0 0.0
2017-Sep-24 07:30N 38°30' W 008°50'0 0.0
2017-Sep-24 07:00N 38°30' W 008°50'0 0.0
2017-Sep-24 06:30N 38°30' W 008°50'0 0.0
2017-Sep-24 06:00N 38°30' W 008°50'0 0.0
2017-Sep-24 05:30N 38°30' W 008°50'0 0.0
2017-Sep-24 05:00N 38°30' W 008°50'0 0.0
2017-Sep-24 04:30N 38°30' W 008°50'0 0.0
2017-Sep-24 04:00N 38°30' W 008°50'0 0.0
2017-Sep-24 03:29N 38°30' W 008°50'0 0.0
2017-Sep-24 03:00N 38°30' W 008°50'0 0.0
2017-Sep-24 02:29N 38°30' W 008°50'0 0.0
2017-Sep-24 02:00N 38°30' W 008°50'0 0.0
2017-Sep-24 01:30N 38°30' W 008°50'0 0.0
2017-Sep-24 01:00N 38°30' W 008°50'2 2.9
2017-Sep-24 00:29N 38°31' W 008°52'2 3.2
2017-Sep-24 00:00N 38°30' W 008°50'0 0.0
2017-Sep-23 23:30N 38°30' W 008°50'0 0.0
2017-Sep-23 23:00N 38°30' W 008°50'3 4.7
2017-Sep-23 22:28N 38°31' W 008°53'1 2.5
2017-Sep-23 21:59N 38°31' W 008°54'0 0.5
2017-Sep-23 21:30N 38°31' W 008°54'0 0.2
2017-Sep-23 21:00N 38°31' W 008°54'1 1.5
2017-Sep-23 20:30N 38°31' W 008°53'0 0.8
2017-Sep-23 20:00N 38°31' W 008°53'2 0.1
2017-Sep-22 01:55N 38°30' W 008°50'0 0.0
2017-Sep-22 01:25N 38°30' W 008°50'0 0.0
2017-Sep-22 00:56N 38°30' W 008°50'0 0.0
2017-Sep-22 00:29N 38°30' W 008°50'0 0.0
2017-Sep-21 23:52N 38°30' W 008°50'0 0.0
2017-Sep-21 23:11N 38°30' W 008°50'0 0.0
2017-Sep-21 22:50N 38°30' W 008°50'0 0.0
2017-Sep-21 22:22N 38°30' W 008°50'0 0.0
2017-Sep-21 22:00N 38°30' W 008°50'0 0.0
2017-Sep-21 21:30N 38°30' W 008°50'0 0.0
2017-Sep-21 20:55N 38°30' W 008°50'0 0.0
2017-Sep-21 20:26N 38°30' W 008°50'0 0.0
2017-Sep-21 19:58N 38°30' W 008°50'0 0.0
2017-Sep-21 19:28N 38°30' W 008°50'0 0.0
2017-Sep-21 18:55N 38°30' W 008°50'0 0.0
2017-Sep-21 18:30N 38°30' W 008°50'0 0.0
2017-Sep-21 18:00N 38°30' W 008°50'0 0.0
2017-Sep-21 17:30N 38°30' W 008°50'0 0.0
2017-Sep-21 17:00N 38°30' W 008°50'0 0.0
2017-Sep-21 16:30N 38°30' W 008°50'0 0.0
2017-Sep-21 15:56N 38°30' W 008°50'0 0.0
2017-Sep-21 15:25N 38°30' W 008°50'0 0.0
2017-Sep-21 15:00N 38°30' W 008°50'0 0.0
2017-Sep-21 14:27N 38°30' W 008°50'0 0.0
2017-Sep-21 13:52N 38°30' W 008°50'0 0.0
2017-Sep-21 13:30N 38°30' W 008°50'0 0.0
2017-Sep-21 12:53N 38°30' W 008°50'0 0.0
2017-Sep-21 12:28N 38°30' W 008°50'0 0.0
2017-Sep-21 12:00N 38°30' W 008°50'0 0.0
2017-Sep-21 11:29N 38°30' W 008°50'0 0.0
2017-Sep-21 11:00N 38°30' W 008°50'0 0.0
2017-Sep-21 10:28N 38°30' W 008°50'0 0.0
2017-Sep-21 10:00N 38°30' W 008°50'0 0.0
2017-Sep-21 09:14N 38°30' W 008°50'0 0.0
2017-Sep-21 08:57N 38°30' W 008°50'0 0.0
2017-Sep-21 08:23N 38°30' W 008°50'0 0.0
2017-Sep-21 08:00N 38°30' W 008°50'0 0.0
2017-Sep-21 07:27N 38°30' W 008°50'0 0.0
2017-Sep-21 06:49N 38°30' W 008°50'0 0.0
2017-Sep-21 06:29N 38°30' W 008°50'0 0.0
2017-Sep-21 06:00N 38°30' W 008°50'0 0.0
2017-Sep-21 05:28N 38°30' W 008°50'0 0.0
2017-Sep-21 05:00N 38°30' W 008°50'0 0.0
2017-Sep-21 04:30N 38°30' W 008°50'0 0.0
2017-Sep-21 03:59N 38°30' W 008°50'0 0.0
2017-Sep-21 03:30N 38°30' W 008°50'0 0.0
2017-Sep-21 02:57N 38°30' W 008°50'0 0.0
2017-Sep-21 02:27N 38°30' W 008°50'0 0.0
2017-Sep-21 01:53N 38°30' W 008°50'0 0.0
2017-Sep-21 01:28N 38°30' W 008°50'0 0.0
2017-Sep-21 00:52N 38°30' W 008°50'0 0.0
2017-Sep-21 00:28N 38°30' W 008°50'0 0.0
2017-Sep-20 23:52N 38°30' W 008°50'0 0.0
2017-Sep-20 23:30N 38°30' W 008°50'0 0.0
2017-Sep-20 23:00N 38°30' W 008°50'0 0.0
2017-Sep-20 22:27N 38°30' W 008°50'0 0.0
2017-Sep-20 22:00N 38°30' W 008°50'0 0.0
2017-Sep-20 21:30N 38°30' W 008°50'0 0.0
2017-Sep-20 20:54N 38°30' W 008°50'0 0.0
2017-Sep-20 20:30N 38°30' W 008°50'0 0.0
2017-Sep-20 19:58N 38°30' W 008°50'0 0.0
2017-Sep-20 19:30N 38°30' W 008°50'0 0.0
2017-Sep-20 19:00N 38°30' W 008°50'0 0.0
2017-Sep-20 18:28N 38°30' W 008°50'0 0.0
2017-Sep-20 17:57N 38°30' W 008°50'0 0.0
2017-Sep-20 17:30N 38°30' W 008°50'0 0.0
2017-Sep-20 16:59N 38°30' W 008°50'0 0.0
2017-Sep-20 16:30N 38°30' W 008°50'0 0.0
2017-Sep-20 16:00N 38°30' W 008°50'0 0.0
2017-Sep-20 15:30N 38°30' W 008°50'0 0.0
2017-Sep-20 15:00N 38°30' W 008°50'0 0.0
2017-Sep-20 13:59N 38°30' W 008°50'0 0.0
2017-Sep-20 13:23N 38°30' W 008°50'0 0.0
2017-Sep-20 13:00N 38°30' W 008°50'0 0.0
2017-Sep-20 12:30N 38°30' W 008°50'0 0.0
2017-Sep-20 11:59N 38°30' W 008°50'0 0.0
2017-Sep-20 11:30N 38°30' W 008°50'0 0.0
2017-Sep-20 11:00N 38°30' W 008°50'0 0.0
2017-Sep-20 10:28N 38°30' W 008°50'0 0.0
2017-Sep-20 10:00N 38°30' W 008°50'0 0.0
2017-Sep-20 09:16N 38°30' W 008°50'0 0.0
2017-Sep-20 08:57N 38°30' W 008°50'0 0.0
2017-Sep-20 08:26N 38°30' W 008°50'0 0.0
2017-Sep-20 07:58N 38°30' W 008°50'0 0.0
2017-Sep-20 07:30N 38°30' W 008°50'0 0.0
2017-Sep-20 06:54N 38°30' W 008°50'0 0.0
2017-Sep-20 06:30N 38°30' W 008°50'0 0.0
2017-Sep-20 05:58N 38°30' W 008°50'0 0.0
2017-Sep-20 05:24N 38°30' W 008°50'0 0.0
2017-Sep-20 04:59N 38°30' W 008°50'0 0.0
2017-Sep-20 04:29N 38°30' W 008°50'0 0.0
2017-Sep-20 03:58N 38°30' W 008°50'0 0.0
2017-Sep-20 03:30N 38°30' W 008°50'0 0.0
2017-Sep-20 02:55N 38°30' W 008°50'0 0.0
2017-Sep-20 02:28N 38°30' W 008°50'0 0.0
2017-Sep-20 01:50N 38°30' W 008°50'0 0.0
2017-Sep-20 01:30N 38°30' W 008°50'0 0.0
2017-Sep-20 00:56N 38°30' W 008°50'0 0.0
2017-Sep-20 00:30N 38°30' W 008°50'1 0.5
2017-Sep-19 22:53N 38°30' W 008°51'0 1.2
2017-Sep-19 22:29N 38°30' W 008°51'0 0.7
2017-Sep-19 21:57N 38°30' W 008°50'0 0.0
2017-Sep-19 21:25N 38°30' W 008°50'0 0.0
2017-Sep-19 20:57N 38°30' W 008°50'0 0.0
2017-Sep-19 20:28N 38°30' W 008°50'0 0.0
2017-Sep-19 19:59N 38°30' W 008°50'0 0.0
2017-Sep-19 19:27N 38°30' W 008°50'0 0.0
2017-Sep-19 18:54N 38°30' W 008°50'0 0.0
2017-Sep-19 18:30N 38°30' W 008°50'0 0.0
2017-Sep-19 18:00N 38°30' W 008°50'0 0.0
2017-Sep-19 17:27N 38°30' W 008°50'0 0.0
2017-Sep-19 16:56N 38°30' W 008°50'0 0.0
2017-Sep-19 16:30N 38°30' W 008°50'0 0.0
2017-Sep-19 15:56N 38°30' W 008°50'2 3.5
2017-Sep-19 15:30N 38°31' W 008°52'2 3.4
2017-Sep-19 14:59N 38°31' W 008°54'0 1.0
2017-Sep-19 14:30N 38°31' W 008°55'3 5.7
2017-Sep-19 13:54N 38°30' W 008°50'0 0.0
2017-Sep-19 13:25N 38°30' W 008°50'0 0.0
2017-Sep-19 12:06N 38°30' W 008°50'0 0.0
2017-Sep-19 11:52N 38°30' W 008°50'0 0.0
2017-Sep-19 11:16N 38°30' W 008°50'0 0.0
2017-Sep-19 10:59N 38°30' W 008°50'0 0.0
2017-Sep-19 10:29N 38°30' W 008°50'0 0.0
2017-Sep-19 09:59N 38°30' W 008°50'0 0.0
2017-Sep-19 09:28N 38°30' W 008°50'0 0.0
2017-Sep-19 08:58N 38°30' W 008°50'0 0.0
2017-Sep-19 08:27N 38°30' W 008°50'0 0.0
2017-Sep-19 07:57N 38°30' W 008°50'0 0.0
2017-Sep-19 07:22N 38°30' W 008°50'0 0.0
2017-Sep-19 07:00N 38°30' W 008°50'0 0.0
2017-Sep-19 06:28N 38°30' W 008°50'0 0.0
2017-Sep-19 06:00N 38°30' W 008°50'0 0.0
2017-Sep-19 05:25N 38°30' W 008°50'0 0.0
2017-Sep-19 05:00N 38°30' W 008°50'0 0.0
2017-Sep-19 04:30N 38°30' W 008°50'0 0.0
2017-Sep-19 04:00N 38°30' W 008°50'0 0.0
2017-Sep-19 03:19N 38°30' W 008°50'0 0.0
2017-Sep-19 02:58N 38°30' W 008°50'0 0.0
2017-Sep-19 02:29N 38°30' W 008°50'0 0.0
2017-Sep-19 02:00N 38°30' W 008°50'0 0.0
2017-Sep-19 01:30N 38°30' W 008°50'0 0.0
2017-Sep-19 01:00N 38°30' W 008°50'0 0.0
2017-Sep-19 00:30N 38°30' W 008°50'0 0.0
2017-Sep-19 00:00N 38°30' W 008°50'0 0.0
2017-Sep-18 23:30N 38°30' W 008°50'0 0.0
2017-Sep-18 22:58N 38°30' W 008°50'0 0.0
2017-Sep-18 22:30N 38°30' W 008°50'0 0.0
2017-Sep-18 21:59N 38°30' W 008°50'0 0.0
2017-Sep-18 21:30N 38°30' W 008°50'0 0.0
2017-Sep-18 21:00N 38°30' W 008°50'0 0.0
2017-Sep-18 20:30N 38°30' W 008°50'0 0.0
2017-Sep-18 20:00N 38°30' W 008°50'0 0.0
2017-Sep-18 19:21N 38°30' W 008°50'0 0.0
2017-Sep-18 18:59N 38°30' W 008°50'0 0.0
2017-Sep-18 18:30N 38°30' W 008°50'0 0.0
2017-Sep-18 18:00N 38°30' W 008°50'0 0.0
2017-Sep-18 17:24N 38°30' W 008°50'0 0.0
2017-Sep-18 16:55N 38°30' W 008°50'0 0.0
2017-Sep-18 16:28N 38°30' W 008°50'0 0.0
2017-Sep-18 16:00N 38°30' W 008°50'0 0.0
2017-Sep-18 15:29N 38°30' W 008°50'0 0.0
2017-Sep-18 14:54N 38°30' W 008°50'0 0.0
2017-Sep-18 14:28N 38°30' W 008°50'0 0.0
2017-Sep-18 13:59N 38°30' W 008°50'0 0.0
2017-Sep-18 13:30N 38°30' W 008°50'0 0.0
2017-Sep-18 12:57N 38°30' W 008°50'0 0.0
2017-Sep-18 12:30N 38°30' W 008°50'0 0.0
2017-Sep-18 12:00N 38°30' W 008°50'0 0.0
2017-Sep-18 11:29N 38°30' W 008°50'0 0.0
2017-Sep-18 10:55N 38°30' W 008°50'0 0.0
2017-Sep-18 10:29N 38°30' W 008°50'0 0.0
2017-Sep-18 09:58N 38°30' W 008°50'0 0.0
2017-Sep-18 09:22N 38°30' W 008°50'0 0.0
2017-Sep-18 08:53N 38°30' W 008°50'0 0.0
2017-Sep-18 08:26N 38°30' W 008°50'0 0.0
2017-Sep-18 08:00N 38°30' W 008°50'0 0.0
2017-Sep-18 07:24N 38°30' W 008°50'0 0.0
2017-Sep-18 06:58N 38°30' W 008°50'0 0.0
2017-Sep-18 06:22N 38°30' W 008°50'0 0.0
2017-Sep-18 05:54N 38°30' W 008°50'0 0.0
2017-Sep-18 05:24N 38°30' W 008°50'0 0.0
2017-Sep-18 04:59N 38°30' W 008°50'0 0.0
2017-Sep-18 04:26N 38°30' W 008°50'0 0.0
2017-Sep-18 04:00N 38°30' W 008°50'0 0.0
2017-Sep-18 03:28N 38°30' W 008°50'0 0.0
2017-Sep-18 03:00N 38°30' W 008°50'0 0.0
2017-Sep-18 02:23N 38°30' W 008°50'0 0.0
2017-Sep-18 02:00N 38°30' W 008°50'0 0.0
2017-Sep-18 01:29N 38°30' W 008°50'0 0.0
2017-Sep-18 00:57N 38°30' W 008°50'0 0.0
2017-Sep-18 00:29N 38°30' W 008°50'0 0.0
2017-Sep-17 23:53N 38°30' W 008°50'0 0.0
2017-Sep-17 23:23N 38°30' W 008°50'0 0.0
2017-Sep-17 23:00N 38°30' W 008°50'0 0.0
2017-Sep-17 22:28N 38°30' W 008°50'0 0.0
2017-Sep-17 21:59N 38°30' W 008°50'0 0.0
2017-Sep-17 21:24N 38°30' W 008°50'0 0.0
2017-Sep-17 21:00N 38°30' W 008°50'0 0.0
2017-Sep-17 20:23N 38°30' W 008°50'0 0.0
2017-Sep-17 20:00N 38°30' W 008°50'0 0.0
2017-Sep-17 19:28N 38°30' W 008°50'0 0.0
2017-Sep-17 18:59N 38°30' W 008°50'0 0.0
2017-Sep-17 18:27N 38°30' W 008°50'0 0.0
2017-Sep-17 17:54N 38°30' W 008°50'0 0.0
2017-Sep-17 17:23N 38°30' W 008°50'0 0.0
2017-Sep-17 16:49N 38°30' W 008°50'0 0.0
2017-Sep-17 16:27N 38°30' W 008°50'0 0.0
2017-Sep-17 15:59N 38°30' W 008°50'0 0.0
2017-Sep-17 15:15N 38°30' W 008°50'0 0.0
2017-Sep-17 15:00N 38°30' W 008°50'0 0.0
2017-Sep-17 14:29N 38°30' W 008°50'0 0.0
2017-Sep-17 14:00N 38°30' W 008°50'0 0.0
2017-Sep-17 13:30N 38°30' W 008°50'0 0.0
2017-Sep-17 12:54N 38°30' W 008°50'0 0.0
2017-Sep-17 12:20N 38°30' W 008°50'0 0.0
2017-Sep-17 11:59N 38°30' W 008°50'0 0.0
2017-Sep-17 11:27N 38°30' W 008°50'0 0.0
2017-Sep-17 10:59N 38°30' W 008°50'0 0.0
2017-Sep-17 10:23N 38°30' W 008°50'0 0.0
2017-Sep-17 10:00N 38°30' W 008°50'0 0.0
2017-Sep-17 09:25N 38°30' W 008°50'0 0.0
2017-Sep-17 09:00N 38°30' W 008°50'0 0.0
2017-Sep-17 08:30N 38°30' W 008°50'0 0.0
2017-Sep-17 08:00N 38°30' W 008°50'0 0.0
2017-Sep-17 07:30N 38°30' W 008°50'0 0.0
2017-Sep-17 06:58N 38°30' W 008°50'0 0.0
2017-Sep-17 06:30N 38°30' W 008°50'0 0.0
2017-Sep-17 05:52N 38°30' W 008°50'0 0.0
2017-Sep-17 05:29N 38°30' W 008°50'0 0.0
2017-Sep-17 05:00N 38°30' W 008°50'0 0.0
2017-Sep-17 04:28N 38°30' W 008°50'0 0.0
2017-Sep-17 03:48N 38°30' W 008°50'0 0.0
2017-Sep-17 03:21N 38°30' W 008°50'0 0.0
2017-Sep-17 02:57N 38°30' W 008°50'0 0.0
2017-Sep-17 02:28N 38°30' W 008°50'0 0.0
2017-Sep-17 01:59N 38°30' W 008°50'0 0.0
2017-Sep-17 01:27N 38°30' W 008°50'0 0.0
2017-Sep-17 00:59N 38°30' W 008°50'0 0.0
2017-Sep-17 00:15N 38°30' W 008°50'0 0.0
2017-Sep-16 23:58N 38°30' W 008°50'0 0.0
2017-Sep-16 23:17N 38°30' W 008°50'0 0.0
2017-Sep-16 22:59N 38°30' W 008°50'0 0.0
2017-Sep-16 22:24N 38°30' W 008°50'0 0.0
2017-Sep-16 21:42N 38°30' W 008°50'0 0.0
2017-Sep-16 21:28N 38°30' W 008°50'0 0.0
2017-Sep-16 21:00N 38°30' W 008°50'0 0.0
2017-Sep-16 20:30N 38°30' W 008°50'0 0.0
2017-Sep-16 20:00N 38°30' W 008°50'0 0.0
2017-Sep-16 19:28N 38°30' W 008°50'0 0.0
2017-Sep-16 18:54N 38°30' W 008°50'0 0.0
2017-Sep-16 18:27N 38°30' W 008°50'0 0.0
2017-Sep-16 17:55N 38°30' W 008°50'0 0.0
2017-Sep-16 17:23N 38°30' W 008°50'0 0.0
2017-Sep-16 16:58N 38°30' W 008°50'0 0.0
2017-Sep-16 16:23N 38°30' W 008°50'0 0.0
2017-Sep-16 15:51N 38°30' W 008°50'0 0.0
2017-Sep-16 15:12N 38°30' W 008°50'0 0.0
2017-Sep-16 14:59N 38°30' W 008°50'0 0.0
2017-Sep-16 14:17N 38°30' W 008°50'0 0.0
2017-Sep-16 13:59N 38°30' W 008°50'0 0.0
2017-Sep-16 13:12N 38°30' W 008°50'0 0.0
2017-Sep-16 12:57N 38°30' W 008°50'0 0.0
2017-Sep-16 12:30N 38°30' W 008°50'0 0.0
2017-Sep-16 11:59N 38°30' W 008°50'0 0.0
2017-Sep-16 11:21N 38°30' W 008°50'0 0.0
2017-Sep-16 10:56N 38°30' W 008°50'0 0.0
2017-Sep-16 10:27N 38°30' W 008°50'0 0.0
2017-Sep-16 09:59N 38°30' W 008°50'0 0.0
2017-Sep-16 09:28N 38°30' W 008°50'0 0.0
2017-Sep-16 08:52N 38°30' W 008°50'0 0.0
2017-Sep-16 08:30N 38°30' W 008°50'0 0.0
2017-Sep-16 07:51N 38°30' W 008°50'0 0.0
2017-Sep-16 07:27N 38°30' W 008°50'0 0.0
2017-Sep-16 06:49N 38°30' W 008°50'0 0.0
2017-Sep-16 06:28N 38°30' W 008°50'0 0.0
2017-Sep-16 05:59N 38°30' W 008°50'0 0.0
2017-Sep-16 05:28N 38°30' W 008°50'0 0.0
2017-Sep-16 04:54N 38°30' W 008°50'0 0.0
2017-Sep-16 04:18N 38°30' W 008°50'0 0.0
2017-Sep-16 03:51N 38°30' W 008°50'0 0.0
2017-Sep-16 03:22N 38°30' W 008°50'0 0.0
2017-Sep-16 03:00N 38°30' W 008°50'0 0.0
2017-Sep-16 02:28N 38°30' W 008°50'0 0.0
2017-Sep-16 01:36N 38°30' W 008°50'0 0.0
2017-Sep-16 01:30N 38°30' W 008°50'0 0.0
2017-Sep-16 00:50N 38°30' W 008°50'0 0.0
2017-Sep-16 00:30N 38°30' W 008°50'0 0.0
2017-Sep-15 23:58N 38°30' W 008°50'0 0.0
2017-Sep-15 23:25N 38°30' W 008°50'0 0.0
2017-Sep-15 22:53N 38°30' W 008°50'0 0.0
2017-Sep-15 22:30N 38°30' W 008°50'0 0.0
2017-Sep-15 21:52N 38°30' W 008°50'0 0.0
2017-Sep-15 21:25N 38°30' W 008°50'0 0.0
2017-Sep-15 20:58N 38°30' W 008°50'0 0.0
2017-Sep-15 20:25N 38°30' W 008°50'0 0.0
2017-Sep-15 20:00N 38°30' W 008°50'0 0.0
2017-Sep-15 19:26N 38°30' W 008°50'0 0.0
2017-Sep-15 18:49N 38°30' W 008°50'0 0.0
2017-Sep-15 18:22N 38°30' W 008°50'0 0.0
2017-Sep-15 17:53N 38°30' W 008°50'0 0.0
2017-Sep-15 17:26N 38°30' W 008°50'0 0.0
2017-Sep-15 16:54N 38°30' W 008°50'0 0.0
2017-Sep-15 16:18N 38°30' W 008°50'0 0.0
2017-Sep-15 15:58N 38°30' W 008°50'0 0.0
2017-Sep-15 14:46N 38°30' W 008°50'0 0.0
2017-Sep-15 14:20N 38°30' W 008°50'0 0.0
2017-Sep-15 13:28N 38°30' W 008°50'0 0.0
2017-Sep-15 12:56N 38°30' W 008°50'0 0.0
2017-Sep-15 12:29N 38°30' W 008°50'0 0.0
2017-Sep-15 11:58N 38°30' W 008°50'0 0.0
2017-Sep-15 10:52N 38°30' W 008°50'0 0.0
2017-Sep-15 10:30N 38°30' W 008°50'0 0.0
2017-Sep-15 09:47N 38°30' W 008°50'0 0.0
2017-Sep-15 09:20N 38°30' W 008°50'0 0.0
2017-Sep-15 09:00N 38°30' W 008°50'0 0.0
2017-Sep-15 08:24N 38°30' W 008°50'0 0.0
2017-Sep-15 07:50N 38°30' W 008°50'0 0.0
2017-Sep-15 07:10N 38°30' W 008°50'0 0.0
2017-Sep-15 06:57N 38°30' W 008°50'0 0.0
2017-Sep-15 06:30N 38°30' W 008°50'0 0.0
2017-Sep-15 06:00N 38°30' W 008°50'0 0.0
2017-Sep-15 05:25N 38°30' W 008°50'0 0.0
2017-Sep-15 04:54N 38°30' W 008°50'0 0.0
2017-Sep-15 04:25N 38°30' W 008°50'0 0.0
2017-Sep-15 03:56N 38°30' W 008°50'0 0.0
2017-Sep-15 03:25N 38°30' W 008°50'0 0.0
2017-Sep-15 02:59N 38°30' W 008°50'0 0.0
2017-Sep-15 02:28N 38°30' W 008°50'0 0.0
2017-Sep-15 01:59N 38°30' W 008°50'0 0.0
2017-Sep-15 01:20N 38°30' W 008°50'0 0.0
2017-Sep-15 00:43N 38°30' W 008°50'0 0.0
2017-Sep-15 00:27N 38°30' W 008°50'0 0.0
2017-Sep-15 00:00N 38°30' W 008°50'0 0.0
2017-Sep-14 23:30N 38°30' W 008°50'0 0.0
2017-Sep-14 22:56N 38°30' W 008°50'0 0.0
2017-Sep-14 22:25N 38°30' W 008°50'0 0.0
2017-Sep-14 21:46N 38°30' W 008°50'0 0.0
2017-Sep-14 21:30N 38°30' W 008°50'0 0.0
2017-Sep-14 20:59N 38°30' W 008°50'  
Track history (hours):
 
Tides and Currents Weather Stations Pressure Air Temp Water Temp Dewpoint Dewpoint Depression Visibility Wind Speed Wind Dir Waves Ship Positions

Svitzer Lisboa

Last reported at 2017-Sep-24 20:53 UTC. Time now 2017-Sep-24 21:09 UTC.
Position N 38°30' W 008°50'.

Length 28 m; draft 4 m.

Type: Towing. MMSI: 263623000.

Date/timePositionNaut miles runAvg speedWind from/ knotsBaromVisibWave heightAir tempDewpointWater temp
2017-Sep-24 20:53N 38°30' W 008°50'0 0.0
2017-Sep-24 20:26N 38°30' W 008°50'0 0.0
2017-Sep-24 19:59N 38°30' W 008°50'0 0.0
2017-Sep-24 19:30N 38°30' W 008°50'0 0.0
2017-Sep-24 19:00N 38°30' W 008°50'0 0.0
2017-Sep-24 18:30N 38°30' W 008°50'0 0.0
2017-Sep-24 18:00N 38°30' W 008°50'0 0.0
2017-Sep-24 17:30N 38°30' W 008°50'0 0.0
2017-Sep-24 17:00N 38°30' W 008°50'0 0.0
2017-Sep-24 16:30N 38°30' W 008°50'0 0.0
2017-Sep-24 16:00N 38°30' W 008°50'0 0.0
2017-Sep-24 15:30N 38°30' W 008°50'0 0.0
2017-Sep-24 15:00N 38°30' W 008°50'0 0.0
2017-Sep-24 14:29N 38°30' W 008°50'0 0.0
2017-Sep-24 14:00N 38°30' W 008°50'0 0.0
2017-Sep-24 13:30N 38°30' W 008°50'0 0.0
2017-Sep-24 13:00N 38°30' W 008°50'0 0.0
2017-Sep-24 12:30N 38°30' W 008°50'0 0.0
2017-Sep-24 12:00N 38°30' W 008°50'0 0.0
2017-Sep-24 11:29N 38°30' W 008°50'0 0.0
2017-Sep-24 11:00N 38°30' W 008°50'0 0.0
2017-Sep-24 10:29N 38°30' W 008°50'0 0.0
2017-Sep-24 10:00N 38°30' W 008°50'0 0.0
2017-Sep-24 09:29N 38°30' W 008°50'0 0.0
2017-Sep-24 09:00N 38°30' W 008°50'0 0.0
2017-Sep-24 08:28N 38°30' W 008°50'0 0.0
2017-Sep-24 08:00N 38°30' W 008°50'0 0.0
2017-Sep-24 07:30N 38°30' W 008°50'0 0.0
2017-Sep-24 07:00N 38°30' W 008°50'0 0.0
2017-Sep-24 06:30N 38°30' W 008°50'0 0.0
2017-Sep-24 06:00N 38°30' W 008°50'0 0.0
2017-Sep-24 05:30N 38°30' W 008°50'0 0.0
2017-Sep-24 05:00N 38°30' W 008°50'0 0.0
2017-Sep-24 04:30N 38°30' W 008°50'0 0.0
2017-Sep-24 04:00N 38°30' W 008°50'0 0.0
2017-Sep-24 03:29N 38°30' W 008°50'0 0.0
2017-Sep-24 03:00N 38°30' W 008°50'0 0.0
2017-Sep-24 02:29N 38°30' W 008°50'0 0.0
2017-Sep-24 02:00N 38°30' W 008°50'0 0.0
2017-Sep-24 01:30N 38°30' W 008°50'0 0.0
2017-Sep-24 01:00N 38°30' W 008°50'2 2.9
2017-Sep-24 00:29N 38°31' W 008°52'2 3.2
2017-Sep-24 00:00N 38°30' W 008°50'0 0.0
2017-Sep-23 23:30N 38°30' W 008°50'0 0.0
2017-Sep-23 23:00N 38°30' W 008°50'3 4.7
2017-Sep-23 22:28N 38°31' W 008°53'1 2.5
2017-Sep-23 21:59N 38°31' W 008°54'0 0.5
2017-Sep-23 21:30N 38°31' W 008°54'0 0.2
2017-Sep-23 21:00N 38°31' W 008°54'1 1.5
2017-Sep-23 20:30N 38°31' W 008°53'0 0.8
2017-Sep-23 20:00N 38°31' W 008°53'2 0.1
2017-Sep-22 01:55N 38°30' W 008°50'0 0.0
2017-Sep-22 01:25N 38°30' W 008°50'0 0.0
2017-Sep-22 00:56N 38°30' W 008°50'0 0.0
2017-Sep-22 00:29N 38°30' W 008°50'0 0.0
2017-Sep-21 23:52N 38°30' W 008°50'0 0.0
2017-Sep-21 23:11N 38°30' W 008°50'0 0.0
2017-Sep-21 22:50N 38°30' W 008°50'0 0.0
2017-Sep-21 22:22N 38°30' W 008°50'0 0.0
2017-Sep-21 22:00N 38°30' W 008°50'0 0.0
2017-Sep-21 21:30N 38°30' W 008°50'0 0.0
2017-Sep-21 20:55N 38°30' W 008°50'0 0.0
2017-Sep-21 20:26N 38°30' W 008°50'0 0.0
2017-Sep-21 19:58N 38°30' W 008°50'0 0.0
2017-Sep-21 19:28N 38°30' W 008°50'0 0.0
2017-Sep-21 18:55N 38°30' W 008°50'0 0.0
2017-Sep-21 18:30N 38°30' W 008°50'0 0.0
2017-Sep-21 18:00N 38°30' W 008°50'0 0.0
2017-Sep-21 17:30N 38°30' W 008°50'0 0.0
2017-Sep-21 17:00N 38°30' W 008°50'0 0.0
2017-Sep-21 16:30N 38°30' W 008°50'0 0.0
2017-Sep-21 15:56N 38°30' W 008°50'0 0.0
2017-Sep-21 15:25N 38°30' W 008°50'0 0.0
2017-Sep-21 15:00N 38°30' W 008°50'0 0.0
2017-Sep-21 14:27N 38°30' W 008°50'0 0.0
2017-Sep-21 13:52N 38°30' W 008°50'0 0.0
2017-Sep-21 13:30N 38°30' W 008°50'0 0.0
2017-Sep-21 12:53N 38°30' W 008°50'0 0.0
2017-Sep-21 12:28N 38°30' W 008°50'0 0.0
2017-Sep-21 12:00N 38°30' W 008°50'0 0.0
2017-Sep-21 11:29N 38°30' W 008°50'0 0.0
2017-Sep-21 11:00N 38°30' W 008°50'0 0.0
2017-Sep-21 10:28N 38°30' W 008°50'0 0.0
2017-Sep-21 10:00N 38°30' W 008°50'0 0.0
2017-Sep-21 09:14N 38°30' W 008°50'0 0.0
2017-Sep-21 08:57N 38°30' W 008°50'0 0.0
2017-Sep-21 08:23N 38°30' W 008°50'0 0.0
2017-Sep-21 08:00N 38°30' W 008°50'0 0.0
2017-Sep-21 07:27N 38°30' W 008°50'0 0.0
2017-Sep-21 06:49N 38°30' W 008°50'0 0.0
2017-Sep-21 06:29N 38°30' W 008°50'0 0.0
2017-Sep-21 06:00N 38°30' W 008°50'0 0.0
2017-Sep-21 05:28N 38°30' W 008°50'0 0.0
2017-Sep-21 05:00N 38°30' W 008°50'0 0.0
2017-Sep-21 04:30N 38°30' W 008°50'0 0.0
2017-Sep-21 03:59N 38°30' W 008°50'0 0.0
2017-Sep-21 03:30N 38°30' W 008°50'0 0.0
2017-Sep-21 02:57N 38°30' W 008°50'0 0.0
2017-Sep-21 02:27N 38°30' W 008°50'0 0.0
2017-Sep-21 01:53N 38°30' W 008°50'0 0.0
2017-Sep-21 01:28N 38°30' W 008°50'0 0.0
2017-Sep-21 00:52N 38°30' W 008°50'0 0.0
2017-Sep-21 00:28N 38°30' W 008°50'0 0.0
2017-Sep-20 23:52N 38°30' W 008°50'0 0.0
2017-Sep-20 23:30N 38°30' W 008°50'0 0.0
2017-Sep-20 23:00N 38°30' W 008°50'0 0.0
2017-Sep-20 22:27N 38°30' W 008°50'0 0.0
2017-Sep-20 22:00N 38°30' W 008°50'0 0.0
2017-Sep-20 21:30N 38°30' W 008°50'0 0.0
2017-Sep-20 20:54N 38°30' W 008°50'0 0.0
2017-Sep-20 20:30N 38°30' W 008°50'0 0.0
2017-Sep-20 19:58N 38°30' W 008°50'0 0.0
2017-Sep-20 19:30N 38°30' W 008°50'0 0.0
2017-Sep-20 19:00N 38°30' W 008°50'0 0.0
2017-Sep-20 18:28N 38°30' W 008°50'0 0.0
2017-Sep-20 17:57N 38°30' W 008°50'0 0.0
2017-Sep-20 17:30N 38°30' W 008°50'0 0.0
2017-Sep-20 16:59N 38°30' W 008°50'0 0.0
2017-Sep-20 16:30N 38°30' W 008°50'0 0.0
2017-Sep-20 16:00N 38°30' W 008°50'0 0.0
2017-Sep-20 15:30N 38°30' W 008°50'0 0.0
2017-Sep-20 15:00N 38°30' W 008°50'0 0.0
2017-Sep-20 13:59N 38°30' W 008°50'0 0.0
2017-Sep-20 13:23N 38°30' W 008°50'0 0.0
2017-Sep-20 13:00N 38°30' W 008°50'0 0.0
2017-Sep-20 12:30N 38°30' W 008°50'0 0.0
2017-Sep-20 11:59N 38°30' W 008°50'0 0.0
2017-Sep-20 11:30N 38°30' W 008°50'0 0.0
2017-Sep-20 11:00N 38°30' W 008°50'0 0.0
2017-Sep-20 10:28N 38°30' W 008°50'0 0.0
2017-Sep-20 10:00N 38°30' W 008°50'0 0.0
2017-Sep-20 09:16N 38°30' W 008°50'0 0.0
2017-Sep-20 08:57N 38°30' W 008°50'0 0.0
2017-Sep-20 08:26N 38°30' W 008°50'0 0.0
2017-Sep-20 07:58N 38°30' W 008°50'0 0.0
2017-Sep-20 07:30N 38°30' W 008°50'0 0.0
2017-Sep-20 06:54N 38°30' W 008°50'0 0.0
2017-Sep-20 06:30N 38°30' W 008°50'0 0.0
2017-Sep-20 05:58N 38°30' W 008°50'0 0.0
2017-Sep-20 05:24N 38°30' W 008°50'0 0.0
2017-Sep-20 04:59N 38°30' W 008°50'0 0.0
2017-Sep-20 04:29N 38°30' W 008°50'0 0.0
2017-Sep-20 03:58N 38°30' W 008°50'0 0.0
2017-Sep-20 03:30N 38°30' W 008°50'0 0.0
2017-Sep-20 02:55N 38°30' W 008°50'0 0.0
2017-Sep-20 02:28N 38°30' W 008°50'0 0.0
2017-Sep-20 01:50N 38°30' W 008°50'0 0.0
2017-Sep-20 01:30N 38°30' W 008°50'0 0.0
2017-Sep-20 00:56N 38°30' W 008°50'0 0.0
2017-Sep-20 00:30N 38°30' W 008°50'1 0.5
2017-Sep-19 22:53N 38°30' W 008°51'0 1.2
2017-Sep-19 22:29N 38°30' W 008°51'0 0.7
2017-Sep-19 21:57N 38°30' W 008°50'0 0.0
2017-Sep-19 21:25N 38°30' W 008°50'0 0.0
2017-Sep-19 20:57N 38°30' W 008°50'0 0.0
2017-Sep-19 20:28N 38°30' W 008°50'0 0.0
2017-Sep-19 19:59N 38°30' W 008°50'0 0.0
2017-Sep-19 19:27N 38°30' W 008°50'0 0.0
2017-Sep-19 18:54N 38°30' W 008°50'0 0.0
2017-Sep-19 18:30N 38°30' W 008°50'0 0.0
2017-Sep-19 18:00N 38°30' W 008°50'0 0.0
2017-Sep-19 17:27N 38°30' W 008°50'0 0.0
2017-Sep-19 16:56N 38°30' W 008°50'0 0.0
2017-Sep-19 16:30N 38°30' W 008°50'0 0.0
2017-Sep-19 15:56N 38°30' W 008°50'2 3.5
2017-Sep-19 15:30N 38°31' W 008°52'2 3.4
2017-Sep-19 14:59N 38°31' W 008°54'0 1.0
2017-Sep-19 14:30N 38°31' W 008°55'3 5.7
2017-Sep-19 13:54N 38°30' W 008°50'0 0.0
2017-Sep-19 13:25N 38°30' W 008°50'0 0.0
2017-Sep-19 12:06N 38°30' W 008°50'0 0.0
2017-Sep-19 11:52N 38°30' W 008°50'0 0.0
2017-Sep-19 11:16N 38°30' W 008°50'0 0.0
2017-Sep-19 10:59N 38°30' W 008°50'0 0.0
2017-Sep-19 10:29N 38°30' W 008°50'0 0.0
2017-Sep-19 09:59N 38°30' W 008°50'0 0.0
2017-Sep-19 09:28N 38°30' W 008°50'0 0.0
2017-Sep-19 08:58N 38°30' W 008°50'0 0.0
2017-Sep-19 08:27N 38°30' W 008°50'0 0.0
2017-Sep-19 07:57N 38°30' W 008°50'0 0.0
2017-Sep-19 07:22N 38°30' W 008°50'0 0.0
2017-Sep-19 07:00N 38°30' W 008°50'0 0.0
2017-Sep-19 06:28N 38°30' W 008°50'0 0.0
2017-Sep-19 06:00N 38°30' W 008°50'0 0.0
2017-Sep-19 05:25N 38°30' W 008°50'0 0.0
2017-Sep-19 05:00N 38°30' W 008°50'0 0.0
2017-Sep-19 04:30N 38°30' W 008°50'0 0.0
2017-Sep-19 04:00N 38°30' W 008°50'0 0.0
2017-Sep-19 03:19N 38°30' W 008°50'0 0.0
2017-Sep-19 02:58N 38°30' W 008°50'0 0.0
2017-Sep-19 02:29N 38°30' W 008°50'0 0.0
2017-Sep-19 02:00N 38°30' W 008°50'0 0.0
2017-Sep-19 01:30N 38°30' W 008°50'0 0.0
2017-Sep-19 01:00N 38°30' W 008°50'0 0.0
2017-Sep-19 00:30N 38°30' W 008°50'0 0.0
2017-Sep-19 00:00N 38°30' W 008°50'0 0.0
2017-Sep-18 23:30N 38°30' W 008°50'0 0.0
2017-Sep-18 22:58N 38°30' W 008°50'0 0.0
2017-Sep-18 22:30N 38°30' W 008°50'0 0.0
2017-Sep-18 21:59N 38°30' W 008°50'0 0.0
2017-Sep-18 21:30N 38°30' W 008°50'0 0.0
2017-Sep-18 21:00N 38°30' W 008°50'0 0.0
2017-Sep-18 20:30N 38°30' W 008°50'0 0.0
2017-Sep-18 20:00N 38°30' W 008°50'0 0.0
2017-Sep-18 19:21N 38°30' W 008°50'0 0.0
2017-Sep-18 18:59N 38°30' W 008°50'0 0.0
2017-Sep-18 18:30N 38°30' W 008°50'0 0.0
2017-Sep-18 18:00N 38°30' W 008°50'0 0.0
2017-Sep-18 17:24N 38°30' W 008°50'0 0.0
2017-Sep-18 16:55N 38°30' W 008°50'0 0.0
2017-Sep-18 16:28N 38°30' W 008°50'0 0.0
2017-Sep-18 16:00N 38°30' W 008°50'0 0.0
2017-Sep-18 15:29N 38°30' W 008°50'0 0.0
2017-Sep-18 14:54N 38°30' W 008°50'0 0.0
2017-Sep-18 14:28N 38°30' W 008°50'0 0.0
2017-Sep-18 13:59N 38°30' W 008°50'0 0.0
2017-Sep-18 13:30N 38°30' W 008°50'0 0.0
2017-Sep-18 12:57N 38°30' W 008°50'0 0.0
2017-Sep-18 12:30N 38°30' W 008°50'0 0.0
2017-Sep-18 12:00N 38°30' W 008°50'0 0.0
2017-Sep-18 11:29N 38°30' W 008°50'0 0.0
2017-Sep-18 10:55N 38°30' W 008°50'0 0.0
2017-Sep-18 10:29N 38°30' W 008°50'0 0.0
2017-Sep-18 09:58N 38°30' W 008°50'0 0.0
2017-Sep-18 09:22N 38°30' W 008°50'0 0.0
2017-Sep-18 08:53N 38°30' W 008°50'0 0.0
2017-Sep-18 08:26N 38°30' W 008°50'0 0.0
2017-Sep-18 08:00N 38°30' W 008°50'0 0.0
2017-Sep-18 07:24N 38°30' W 008°50'0 0.0
2017-Sep-18 06:58N 38°30' W 008°50'0 0.0
2017-Sep-18 06:22N 38°30' W 008°50'0 0.0
2017-Sep-18 05:54N 38°30' W 008°50'0 0.0
2017-Sep-18 05:24N 38°30' W 008°50'0 0.0
2017-Sep-18 04:59N 38°30' W 008°50'0 0.0
2017-Sep-18 04:26N 38°30' W 008°50'0 0.0
2017-Sep-18 04:00N 38°30' W 008°50'0 0.0
2017-Sep-18 03:28N 38°30' W 008°50'0 0.0
2017-Sep-18 03:00N 38°30' W 008°50'0 0.0
2017-Sep-18 02:23N 38°30' W 008°50'0 0.0
2017-Sep-18 02:00N 38°30' W 008°50'0 0.0
2017-Sep-18 01:29N 38°30' W 008°50'0 0.0
2017-Sep-18 00:57N 38°30' W 008°50'0 0.0
2017-Sep-18 00:29N 38°30' W 008°50'0 0.0
2017-Sep-17 23:53N 38°30' W 008°50'0 0.0
2017-Sep-17 23:23N 38°30' W 008°50'0 0.0
2017-Sep-17 23:00N 38°30' W 008°50'0 0.0
2017-Sep-17 22:28N 38°30' W 008°50'0 0.0
2017-Sep-17 21:59N 38°30' W 008°50'0 0.0
2017-Sep-17 21:24N 38°30' W 008°50'0 0.0
2017-Sep-17 21:00N 38°30' W 008°50'0 0.0
2017-Sep-17 20:23N 38°30' W 008°50'0 0.0
2017-Sep-17 20:00N 38°30' W 008°50'0 0.0
2017-Sep-17 19:28N 38°30' W 008°50'0 0.0
2017-Sep-17 18:59N 38°30' W 008°50'0 0.0
2017-Sep-17 18:27N 38°30' W 008°50'0 0.0
2017-Sep-17 17:54N 38°30' W 008°50'0 0.0
2017-Sep-17 17:23N 38°30' W 008°50'0 0.0
2017-Sep-17 16:49N 38°30' W 008°50'0 0.0
2017-Sep-17 16:27N 38°30' W 008°50'0 0.0
2017-Sep-17 15:59N 38°30' W 008°50'0 0.0
2017-Sep-17 15:15N 38°30' W 008°50'0 0.0
2017-Sep-17 15:00N 38°30' W 008°50'0 0.0
2017-Sep-17 14:29N 38°30' W 008°50'0 0.0
2017-Sep-17 14:00N 38°30' W 008°50'0 0.0
2017-Sep-17 13:30N 38°30' W 008°50'0 0.0
2017-Sep-17 12:54N 38°30' W 008°50'0 0.0
2017-Sep-17 12:20N 38°30' W 008°50'0 0.0
2017-Sep-17 11:59N 38°30' W 008°50'0 0.0
2017-Sep-17 11:27N 38°30' W 008°50'0 0.0
2017-Sep-17 10:59N 38°30' W 008°50'0 0.0
2017-Sep-17 10:23N 38°30' W 008°50'0 0.0
2017-Sep-17 10:00N 38°30' W 008°50'0 0.0
2017-Sep-17 09:25N 38°30' W 008°50'0 0.0
2017-Sep-17 09:00N 38°30' W 008°50'0 0.0
2017-Sep-17 08:30N 38°30' W 008°50'0 0.0
2017-Sep-17 08:00N 38°30' W 008°50'0 0.0
2017-Sep-17 07:30N 38°30' W 008°50'0 0.0
2017-Sep-17 06:58N 38°30' W 008°50'0 0.0
2017-Sep-17 06:30N 38°30' W 008°50'0 0.0
2017-Sep-17 05:52N 38°30' W 008°50'0 0.0
2017-Sep-17 05:29N 38°30' W 008°50'0 0.0
2017-Sep-17 05:00N 38°30' W 008°50'0 0.0
2017-Sep-17 04:28N 38°30' W 008°50'0 0.0
2017-Sep-17 03:48N 38°30' W 008°50'0 0.0
2017-Sep-17 03:21N 38°30' W 008°50'0 0.0
2017-Sep-17 02:57N 38°30' W 008°50'0 0.0
2017-Sep-17 02:28N 38°30' W 008°50'0 0.0
2017-Sep-17 01:59N 38°30' W 008°50'0 0.0
2017-Sep-17 01:27N 38°30' W 008°50'0 0.0
2017-Sep-17 00:59N 38°30' W 008°50'0 0.0
2017-Sep-17 00:15N 38°30' W 008°50'0 0.0
2017-Sep-16 23:58N 38°30' W 008°50'0 0.0
2017-Sep-16 23:17N 38°30' W 008°50'0 0.0
2017-Sep-16 22:59N 38°30' W 008°50'0 0.0
2017-Sep-16 22:24N 38°30' W 008°50'0 0.0
2017-Sep-16 21:42N 38°30' W 008°50'0 0.0
2017-Sep-16 21:28N 38°30' W 008°50'0 0.0
2017-Sep-16 21:00N 38°30' W 008°50'0 0.0
2017-Sep-16 20:30N 38°30' W 008°50'0 0.0
2017-Sep-16 20:00N 38°30' W 008°50'0 0.0
2017-Sep-16 19:28N 38°30' W 008°50'0 0.0
2017-Sep-16 18:54N 38°30' W 008°50'0 0.0
2017-Sep-16 18:27N 38°30' W 008°50'0 0.0
2017-Sep-16 17:55N 38°30' W 008°50'0 0.0
2017-Sep-16 17:23N 38°30' W 008°50'0 0.0
2017-Sep-16 16:58N 38°30' W 008°50'0 0.0
2017-Sep-16 16:23N 38°30' W 008°50'0 0.0
2017-Sep-16 15:51N 38°30' W 008°50'0 0.0
2017-Sep-16 15:12N 38°30' W 008°50'0 0.0
2017-Sep-16 14:59N 38°30' W 008°50'0 0.0
2017-Sep-16 14:17N 38°30' W 008°50'0 0.0
2017-Sep-16 13:59N 38°30' W 008°50'0 0.0
2017-Sep-16 13:12N 38°30' W 008°50'0 0.0
2017-Sep-16 12:57N 38°30' W 008°50'0 0.0
2017-Sep-16 12:30N 38°30' W 008°50'0 0.0
2017-Sep-16 11:59N 38°30' W 008°50'0 0.0
2017-Sep-16 11:21N 38°30' W 008°50'0 0.0
2017-Sep-16 10:56N 38°30' W 008°50'0 0.0
2017-Sep-16 10:27N 38°30' W 008°50'0 0.0
2017-Sep-16 09:59N 38°30' W 008°50'0 0.0
2017-Sep-16 09:28N 38°30' W 008°50'0 0.0
2017-Sep-16 08:52N 38°30' W 008°50'0 0.0
2017-Sep-16 08:30N 38°30' W 008°50'0 0.0
2017-Sep-16 07:51N 38°30' W 008°50'0 0.0
2017-Sep-16 07:27N 38°30' W 008°50'0 0.0
2017-Sep-16 06:49N 38°30' W 008°50'0 0.0
2017-Sep-16 06:28N 38°30' W 008°50'0 0.0
2017-Sep-16 05:59N 38°30' W 008°50'0 0.0
2017-Sep-16 05:28N 38°30' W 008°50'0 0.0
2017-Sep-16 04:54N 38°30' W 008°50'0 0.0
2017-Sep-16 04:18N 38°30' W 008°50'0 0.0
2017-Sep-16 03:51N 38°30' W 008°50'0 0.0
2017-Sep-16 03:22N 38°30' W 008°50'0 0.0
2017-Sep-16 03:00N 38°30' W 008°50'0 0.0
2017-Sep-16 02:28N 38°30' W 008°50'0 0.0
2017-Sep-16 01:36N 38°30' W 008°50'0 0.0
2017-Sep-16 01:30N 38°30' W 008°50'0 0.0
2017-Sep-16 00:50N 38°30' W 008°50'0 0.0
2017-Sep-16 00:30N 38°30' W 008°50'0 0.0
2017-Sep-15 23:58N 38°30' W 008°50'0 0.0
2017-Sep-15 23:25N 38°30' W 008°50'0 0.0
2017-Sep-15 22:53N 38°30' W 008°50'0 0.0
2017-Sep-15 22:30N 38°30' W 008°50'0 0.0
2017-Sep-15 21:52N 38°30' W 008°50'0 0.0
2017-Sep-15 21:25N 38°30' W 008°50'0 0.0
2017-Sep-15 20:58N 38°30' W 008°50'0 0.0
2017-Sep-15 20:25N 38°30' W 008°50'0 0.0
2017-Sep-15 20:00N 38°30' W 008°50'0 0.0
2017-Sep-15 19:26N 38°30' W 008°50'0 0.0
2017-Sep-15 18:49N 38°30' W 008°50'0 0.0
2017-Sep-15 18:22N 38°30' W 008°50'0 0.0
2017-Sep-15 17:53N 38°30' W 008°50'0 0.0
2017-Sep-15 17:26N 38°30' W 008°50'0 0.0
2017-Sep-15 16:54N 38°30' W 008°50'0 0.0
2017-Sep-15 16:18N 38°30' W 008°50'0 0.0
2017-Sep-15 15:58N 38°30' W 008°50'0 0.0
2017-Sep-15 14:46N 38°30' W 008°50'0 0.0
2017-Sep-15 14:20N 38°30' W 008°50'0 0.0
2017-Sep-15 13:28N 38°30' W 008°50'0 0.0
2017-Sep-15 12:56N 38°30' W 008°50'0 0.0
2017-Sep-15 12:29N 38°30' W 008°50'0 0.0
2017-Sep-15 11:58N 38°30' W 008°50'0 0.0
2017-Sep-15 10:52N 38°30' W 008°50'0 0.0
2017-Sep-15 10:30N 38°30' W 008°50'0 0.0
2017-Sep-15 09:47N 38°30' W 008°50'0 0.0
2017-Sep-15 09:20N 38°30' W 008°50'0 0.0
2017-Sep-15 09:00N 38°30' W 008°50'0 0.0
2017-Sep-15 08:24N 38°30' W 008°50'0 0.0
2017-Sep-15 07:50N 38°30' W 008°50'0 0.0
2017-Sep-15 07:10N 38°30' W 008°50'0 0.0
2017-Sep-15 06:57N 38°30' W 008°50'0 0.0
2017-Sep-15 06:30N 38°30' W 008°50'0 0.0
2017-Sep-15 06:00N 38°30' W 008°50'0 0.0
2017-Sep-15 05:25N 38°30' W 008°50'0 0.0
2017-Sep-15 04:54N 38°30' W 008°50'0 0.0
2017-Sep-15 04:25N 38°30' W 008°50'0 0.0
2017-Sep-15 03:56N 38°30' W 008°50'0 0.0
2017-Sep-15 03:25N 38°30' W 008°50'0 0.0
2017-Sep-15 02:59N 38°30' W 008°50'0 0.0
2017-Sep-15 02:28N 38°30' W 008°50'0 0.0
2017-Sep-15 01:59N 38°30' W 008°50'0 0.0
2017-Sep-15 01:20N 38°30' W 008°50'0 0.0
2017-Sep-15 00:43N 38°30' W 008°50'0 0.0
2017-Sep-15 00:27N 38°30' W 008°50'0 0.0
2017-Sep-15 00:00N 38°30' W 008°50'0 0.0
2017-Sep-14 23:30N 38°30' W 008°50'0 0.0
2017-Sep-14 22:56N 38°30' W 008°50'0 0.0
2017-Sep-14 22:25N 38°30' W 008°50'0 0.0
2017-Sep-14 21:46N 38°30' W 008°50'0 0.0
2017-Sep-14 21:30N 38°30' W 008°50'0 0.0
2017-Sep-14 20:59N 38°30' W 008°50'  

Dump ship's entire track history